»·PEaware :: N410VB KTOA-0O2

N410VB :: KTOA-0O2

FLIGHT INFORMATION

Flight Status: Arrived
Operator: Privately registered:
United States
More flights under this callsign
Pilot: Ben H. (9170)
Aircraft: GULFSTREAM 690 COMMANDER 840/900
(AC90)
More flights by this aircraft type
Origin: KTOA Zamperini
United States
Destination: 0O2 Baker
United States
More flights between these airports :: More routes between these airports
Route: +LIMBO V64 SLI V8 PDZ V442 HEC
File this flight plan on PilotEdge
Remarks:
Altitude:
(Current/Filed)
17,000ft
Speed:
(Current/Filed)
220kts
Departed: 23-Mar-19 02:36 PM
Arrived: 23-Mar-19 03:20 PM
Distance/Time
Traveled:
143nm/0:43
Distance/Time
To Go:
Arrived

Flight Plot

Page will automatically refresh every two minutes.

Flight plan parsing failed; only flown route is shown


Map Options




Map Legend


Flown Route
Filed Route
Departure Airport
Arrival Airport
Navaid (VOR, NDB)
Fix

Horizontal Profiles

Position Reports

Time Latitude Longitude Heading Altitude Ground
Speed
23-Mar-19 14:18 33.801601 -118.341420 218 106ft 0kts
23-Mar-19 14:19 33.801601 -118.341420 218 106ft 0kts
23-Mar-19 14:20 33.801601 -118.341420 218 106ft 0kts
23-Mar-19 14:21 33.801601 -118.341420 218 106ft 0kts
23-Mar-19 14:22 33.801601 -118.341420 218 106ft 0kts
23-Mar-19 14:23 33.801601 -118.341420 218 106ft 0kts
23-Mar-19 14:24 33.801601 -118.341420 218 106ft 0kts
23-Mar-19 14:25 33.801601 -118.341420 218 106ft 0kts
23-Mar-19 14:26 33.801601 -118.341420 218 106ft 0kts
23-Mar-19 14:27 33.801601 -118.341420 218 106ft 0kts
23-Mar-19 14:28 33.801601 -118.341420 218 106ft 0kts
23-Mar-19 14:29 33.801317 -118.341245 128 106ft 16kts
23-Mar-19 14:30 33.800097 -118.337637 128 106ft 28kts
23-Mar-19 14:31 33.799086 -118.333305 38 106ft 0kts
23-Mar-19 14:32 33.799085 -118.333305 38 106ft 0kts
23-Mar-19 14:33 33.799085 -118.333305 38 106ft 0kts
23-Mar-19 14:34 33.799651 -118.332978 312 106ft 3kts
23-Mar-19 14:35 33.815228 -118.352773 312 1107ft 137kts
23-Mar-19 14:36 33.840416 -118.391232 304 3049ft 176kts
23-Mar-19 14:37 33.869879 -118.445732 272 2989ft 201kts
23-Mar-19 14:38 33.825490 -118.453743 178 3001ft 202kts
23-Mar-19 14:39 33.772055 -118.435581 134 3065ft 218kts
23-Mar-19 14:40 33.764308 -118.365506 86 4830ft 221kts
23-Mar-19 14:41 33.769429 -118.288353 86 5000ft 237kts
23-Mar-19 14:42 33.774042 -118.211232 86 4997ft 236kts
23-Mar-19 14:43 33.778296 -118.139303 86 4995ft 217kts
23-Mar-19 14:44 33.782451 -118.067855 86 4996ft 210kts
23-Mar-19 14:45 33.795963 -118.005066 72 5354ft 218kts
23-Mar-19 14:46 33.813290 -117.938813 70 7220ft 216kts
23-Mar-19 14:47 33.831240 -117.869645 70 8818ft 225kts
23-Mar-19 14:48 33.852058 -117.788598 71 8995ft 273kts
23-Mar-19 14:49 33.879652 -117.702702 41 9019ft 277kts
23-Mar-19 14:50 33.932537 -117.639367 41 9013ft 258kts
23-Mar-19 14:51 33.969961 -117.565389 72 9022ft 269kts
23-Mar-19 14:52 34.005801 -117.487867 38 9020ft 264kts
23-Mar-19 14:53 34.068374 -117.439924 23 9021ft 270kts
23-Mar-19 14:54 34.135157 -117.399601 22 9020ft 273kts
23-Mar-19 14:55 34.202935 -117.358915 22 9020ft 270kts
23-Mar-19 14:56 34.266520 -117.320523 23 9012ft 267kts
23-Mar-19 14:57 34.333367 -117.280091 22 8997ft 269kts
23-Mar-19 14:58 34.400912 -117.239161 23 8995ft 270kts
23-Mar-19 14:59 34.461747 -117.202066 21 10763ft 230kts
23-Mar-19 15:00 34.518651 -117.167545 21 12215ft 226kts
23-Mar-19 15:01 34.562626 -117.111794 63 13023ft 260kts
23-Mar-19 15:02 34.586905 -117.044868 64 14747ft 225kts
23-Mar-19 15:03 34.611436 -116.976781 63 16369ft 218kts
23-Mar-19 15:04 34.638347 -116.902833 63 17045ft 271kts
23-Mar-19 15:05 34.670930 -116.813142 64 17022ft 302kts
23-Mar-19 15:06 34.706158 -116.716067 64 15621ft 321kts
23-Mar-19 15:07 34.741248 -116.618298 65 13821ft 309kts
23-Mar-19 15:08 34.774812 -116.524682 65 12352ft 292kts
23-Mar-19 15:09 34.817801 -116.446780 30 11059ft 270kts
23-Mar-19 15:10 34.880625 -116.397716 28 9780ft 262kts
23-Mar-19 15:11 34.940492 -116.351432 29 9021ft 238kts
23-Mar-19 15:12 34.990505 -116.312541 30 9012ft 220kts
23-Mar-19 15:13 35.041267 -116.272999 31 8993ft 215kts
23-Mar-19 15:14 35.099899 -116.230244 23 6609ft 235kts
23-Mar-19 15:15 35.137370 -116.198756 42 5776ft 201kts
23-Mar-19 15:17 35.179653 -116.153014 41 4035ft 219kts
23-Mar-19 15:18 35.221768 -116.106221 40 2932ft 198kts
23-Mar-19 15:19 35.264020 -116.074156 345 1537ft 166kts
23-Mar-19 15:20 35.291813 -116.082783 196 922ft 20kts
23-Mar-19 15:21 35.287882 -116.081180 162 925ft 0kts
23-Mar-19 15:22 35.287882 -116.081180 162 925ft 0kts
23-Mar-19 15:23 35.287613 -116.081200 253 925ft 0kts
23-Mar-19 15:24 35.287613 -116.081200 253 925ft 0kts
23-Mar-19 15:25 35.287613 -116.081200 253 925ft 0kts

Navigation Log

Ident Type
Flight plan parsing failed, navigation log unavailable